Time;durP1;ratioP1;P1;durP2;ratioP2;P2;SDS_P1;SDS_P2;PMS_P1;PMS_P2;Temp;Humidity;BMP_temperature;BMP_pressure;BME280_temperature;BME280_humidity;BME280_pressure;Samples;Min_cycle;Max_cycle;Signal;HPM_P1;HPM_P2
2022/04/19 00:01:44;;;;;;;3.30;2.93;;;8.10;71.90;;;;;;5115306;28;20443;-45
2022/04/19 00:04:11;;;;;;;3.93;2.73;;;7.90;71.40;;;;;;5115227;28;20438;-45
2022/04/19 00:06:38;;;;;;;3.03;2.33;;;7.70;71.80;;;;;;5114917;28;20466;-45
2022/04/19 00:09:05;;;;;;;3.73;2.70;;;7.90;72.10;;;;;;5114754;28;20477;-45
2022/04/19 00:11:31;;;;;;;3.97;2.57;;;7.90;72.50;;;;;;5115305;28;20430;-45
2022/04/19 00:13:58;;;;;;;3.70;2.50;;;8.10;72.60;;;;;;5114757;28;20435;-45
2022/04/19 00:16:24;;;;;;;3.80;2.67;;;7.30;72.20;;;;;;5115254;28;20958;-45
2022/04/19 00:18:52;;;;;;;2.67;2.37;;;7.90;72.70;;;;;;5114603;28;20793;-44
2022/04/19 00:21:20;;;;;;;4.17;2.70;;;8.10;73.40;;;;;;5115198;28;20433;-45
2022/04/19 00:23:47;;;;;;;3.90;2.47;;;7.60;72.40;;;;;;5114908;28;20537;-45
2022/04/19 00:26:14;;;;;;;3.50;2.63;;;7.80;73.30;;;;;;5114798;28;20434;-44
2022/04/19 00:28:41;;;;;;;2.90;2.53;;;8.00;73.40;;;;;;5114181;28;21117;-43
2022/04/19 00:31:08;;;;;;;7.20;2.60;;;8.10;73.90;;;;;;5115171;28;20483;-44
2022/04/19 00:33:38;;;;;;;2.70;2.27;;;7.80;73.60;;;;;;5116125;28;20439;-46
2022/04/19 00:36:07;;;;;;;2.70;2.17;;;7.20;73.20;;;;;;5098495;28;20455;-44
2022/04/19 00:38:33;;;;;;;2.53;2.33;;;7.80;74.20;;;;;;5115636;28;20457;-46
2022/04/19 00:41:00;;;;;;;4.47;2.67;;;7.70;74.30;;;;;;5095712;28;20438;-45
2022/04/19 00:43:28;;;;;;;3.00;2.70;;;7.70;74.10;;;;;;5095562;28;20447;-45
2022/04/19 00:45:54;;;;;;;4.07;2.47;;;7.80;74.60;;;;;;5113804;28;20426;-46
2022/04/19 00:48:22;;;;;;;3.90;2.37;;;7.60;74.90;;;;;;5113428;28;20478;-44
2022/04/19 00:50:51;;;;;;;4.90;3.07;;;7.60;75.50;;;;;;5095540;28;20450;-44
2022/04/19 00:53:20;;;;;;;4.60;2.70;;;8.00;76.00;;;;;;5113957;28;20852;-44
2022/04/19 00:55:48;;;;;;;4.93;2.60;;;7.00;75.70;;;;;;5095308;28;20453;-44
2022/04/19 00:58:16;;;;;;;3.10;2.77;;;7.60;76.00;;;;;;5095254;28;20485;-44
2022/04/19 01:00:46;;;;;;;3.33;2.70;;;7.20;76.10;;;;;;5095405;28;20947;-45
2022/04/19 01:03:15;;;;;;;2.80;2.60;;;7.20;76.50;;;;;;5095243;28;20796;-45
2022/04/19 01:05:44;;;;;;;3.90;2.70;;;7.00;76.60;;;;;;5095187;28;20449;-45
2022/04/19 01:08:16;;;;;;;3.67;3.00;;;7.90;78.10;;;;;;5094985;28;20802;-44
2022/04/19 01:10:46;;;;;;;3.90;2.50;;;7.20;77.20;;;;;;5095126;28;20441;-45
2022/04/19 01:13:19;;;;;;;4.30;2.90;;;7.20;78.00;;;;;;5095590;28;20514;-44
2022/04/19 01:15:54;;;;;;;4.90;2.93;;;7.70;79.10;;;;;;5113756;28;20504;-44
2022/04/19 01:18:24;;;;;;;3.20;2.60;;;6.80;78.00;;;;;;5095379;28;20888;-44
2022/04/19 01:20:53;;;;;;;5.23;2.90;;;7.10;78.60;;;;;;5095401;28;20441;-46
2022/04/19 01:23:22;;;;;;;4.27;2.97;;;7.70;79.70;;;;;;5095539;28;20521;-44
2022/04/19 01:25:49;;;;;;;4.63;2.93;;;7.30;79.00;;;;;;5095347;28;20416;-44
2022/04/19 01:28:18;;;;;;;4.60;3.47;;;6.60;79.10;;;;;;5094822;28;20449;-44
2022/04/19 01:30:45;;;;;;;7.10;2.70;;;7.20;80.00;;;;;;5112908;28;20438;-44
2022/04/19 01:33:14;;;;;;;3.63;2.40;;;7.60;80.30;;;;;;5094880;28;21037;-45
2022/04/19 01:35:43;;;;;;;2.97;2.53;;;6.90;79.90;;;;;;5094837;28;20453;-44
2022/04/19 01:38:13;;;;;;;3.80;3.00;;;6.90;80.50;;;;;;5094571;28;20472;-46
2022/04/19 01:40:42;;;;;;;6.37;2.70;;;7.10;80.90;;;;;;5094505;28;20445;-46
2022/04/19 01:43:13;;;;;;;2.87;2.20;;;7.00;81.00;;;;;;5094733;28;20467;-45
2022/04/19 01:45:48;;;;;;;3.33;3.00;;;7.00;81.30;;;;;;5095422;28;20447;-44
2022/04/19 01:48:19;;;;;;;2.60;2.13;;;6.90;81.70;;;;;;5095040;28;20489;-45
2022/04/19 01:50:46;;;;;;;5.03;3.40;;;6.90;81.70;;;;;;5094533;28;20445;-44
2022/04/19 01:53:13;;;;;;;2.60;2.27;;;6.80;81.90;;;;;;5113008;28;20428;-44
2022/04/19 01:55:44;;;;;;;4.73;2.93;;;7.10;82.10;;;;;;5094740;28;20446;-44
2022/04/19 01:58:31;;;;;;;3.00;2.43;;;7.00;82.20;;;;;;5110471;28;20491;-45
2022/04/19 02:00:58;;;;;;;4.50;3.03;;;6.80;82.40;;;;;;5094571;28;20452;-45
2022/04/19 02:03:25;;;;;;;2.90;2.33;;;6.90;82.80;;;;;;5094671;28;20522;-45
2022/04/19 02:05:52;;;;;;;3.60;2.40;;;6.90;82.80;;;;;;5094311;28;20472;-44
2022/04/19 02:08:19;;;;;;;4.77;3.00;;;6.90;82.10;;;;;;5094110;28;20541;-44
2022/04/19 02:10:47;;;;;;;3.30;2.93;;;6.60;81.80;;;;;;5093950;28;20446;-44
2022/04/19 02:13:14;;;;;;;3.50;2.53;;;6.40;82.70;;;;;;5094531;28;20464;-44
2022/04/19 02:16:01;;;;;;;6.00;4.10;;;6.90;83.50;;;;;;5097893;28;20451;-44
2022/04/19 02:18:28;;;;;;;4.10;2.70;;;6.70;83.50;;;;;;5093600;28;20462;-45
2022/04/19 02:20:55;;;;;;;3.10;2.57;;;6.90;83.60;;;;;;5094000;28;20443;-44
2022/04/19 02:23:21;;;;;;;7.70;3.07;;;6.80;83.60;;;;;;5094069;28;20452;-44
2022/04/19 02:25:54;;;;;;;3.60;2.80;;;7.10;83.70;;;;;;5093999;28;20445;-44
2022/04/19 02:28:21;;;;;;;4.93;2.63;;;6.80;83.80;;;;;;5112277;28;20471;-44
2022/04/19 02:30:59;;;;;;;5.00;2.97;;;7.00;84.20;;;;;;5094308;28;20462;-44
2022/04/19 02:33:29;;;;;;;2.47;2.23;;;6.60;83.70;;;;;;5093966;28;20444;-44
2022/04/19 02:35:56;;;;;;;3.53;2.47;;;6.70;84.30;;;;;;5093988;28;20499;-44
2022/04/19 02:38:25;;;;;;;3.90;2.80;;;6.70;84.30;;;;;;5093860;28;20544;-44
2022/04/19 02:40:53;;;;;;;3.90;3.20;;;6.50;84.30;;;;;;5094031;28;20534;-44
2022/04/19 02:43:21;;;;;;;5.20;2.80;;;6.80;84.60;;;;;;5093927;28;20457;-44
2022/04/19 02:45:54;;;;;;;7.83;3.00;;;6.90;84.80;;;;;;5094083;28;20478;-44
2022/04/19 02:48:28;;;;;;;4.50;2.40;;;6.80;85.10;;;;;;5093577;28;20483;-44
2022/04/19 02:50:56;;;;;;;4.30;3.20;;;6.70;85.20;;;;;;5093678;28;20452;-45
2022/04/19 02:53:22;;;;;;;7.63;3.37;;;6.60;85.00;;;;;;5093685;28;20436;-44
2022/04/19 02:55:50;;;;;;;4.73;2.87;;;6.40;85.40;;;;;;5094553;28;20956;-44
2022/04/19 02:58:17;;;;;;;3.80;2.67;;;6.60;85.70;;;;;;5094163;28;20483;-45
2022/04/19 03:00:44;;;;;;;8.37;2.97;;;6.40;85.80;;;;;;5093475;28;20979;-45
2022/04/19 03:03:12;;;;;;;4.50;3.30;;;6.40;85.90;;;;;;5094329;28;20445;-45
2022/04/19 03:05:40;;;;;;;4.67;2.90;;;6.40;86.40;;;;;;5094062;28;20536;-45
2022/04/19 03:08:07;;;;;;;5.57;3.07;;;5.70;85.60;;;;;;5093967;28;20472;-45
2022/04/19 03:10:34;;;;;;;4.20;3.10;;;6.30;86.40;;;;;;5096201;28;20456;-45
2022/04/19 03:13:01;;;;;;;4.50;2.67;;;5.80;86.20;;;;;;5098301;28;21009;-45
2022/04/19 03:15:34;;;;;;;5.70;3.10;;;6.40;86.80;;;;;;5097846;28;20879;-45
2022/04/19 03:18:01;;;;;;;7.03;3.57;;;6.40;86.60;;;;;;5097916;28;20468;-45
2022/04/19 03:20:29;;;;;;;4.07;2.63;;;6.30;87.10;;;;;;5097100;28;20770;-45
2022/04/19 03:28:28;;;;;;;6.70;2.97;;;6.30;88.20;;;;;;5097165;28;20550;-45
2022/04/19 03:30:57;;;;;;;4.30;2.70;;;5.40;87.30;;;;;;5097626;28;20501;-45
2022/04/19 03:33:24;;;;;;;7.80;3.15;;;6.00;87.80;;;;;;5098120;28;20522;-45
2022/04/19 03:35:50;;;;;;;5.63;3.90;;;6.20;88.90;;;;;;5098303;28;20218;-44
2022/04/19 03:38:18;;;;;;;5.00;3.30;;;5.80;88.40;;;;;;5098094;28;20468;-44
2022/04/19 03:40:46;;;;;;;6.10;2.90;;;6.20;88.80;;;;;;5097583;28;20414;-45
2022/04/19 03:43:13;;;;;;;5.20;3.30;;;6.10;89.20;;;;;;5097846;28;20416;-45
2022/04/19 03:45:40;;;;;;;4.63;3.53;;;6.10;88.90;;;;;;5115971;28;20432;-45
2022/04/19 03:48:11;;;;;;;4.20;2.90;;;5.90;89.00;;;;;;5097758;28;20468;-44
2022/04/19 03:50:38;;;;;;;6.03;3.28;;;6.20;89.90;;;;;;5096744;28;20802;-44
2022/04/19 03:53:05;;;;;;;4.43;3.30;;;5.80;89.30;;;;;;5115309;28;20191;-44
2022/04/19 03:55:31;;;;;;;5.23;3.10;;;5.80;89.60;;;;;;5096719;28;20448;-44
2022/04/19 03:57:58;;;;;;;5.77;3.13;;;5.80;89.90;;;;;;5098688;28;20476;-44
2022/04/19 04:00:25;;;;;;;4.15;2.97;;;5.60;90.00;;;;;;5116517;28;20425;-44
2022/04/19 04:02:52;;;;;;;5.93;3.97;;;5.60;89.50;;;;;;5100103;28;20205;-44
2022/04/19 04:05:27;;;;;;;4.70;3.20;;;5.60;90.10;;;;;;5099721;28;20480;-43
2022/04/19 04:07:57;;;;;;;5.03;3.20;;;5.80;90.20;;;;;;5099602;28;20474;-43
2022/04/19 04:10:25;;;;;;;5.18;3.45;;;5.20;89.70;;;;;;5098871;28;20517;-43
2022/04/19 04:12:52;;;;;;;4.60;3.00;;;5.70;90.20;;;;;;5098833;28;20564;-42
2022/04/19 04:15:19;;;;;;;4.33;3.70;;;5.70;90.50;;;;;;5099924;28;20522;-44
2022/04/19 04:17:45;;;;;;;3.97;3.27;;;5.50;90.60;;;;;;5099585;28;20475;-44
2022/04/19 04:20:12;;;;;;;7.10;4.00;;;5.80;90.60;;;;;;5098352;28;20448;-44
2022/04/19 04:22:40;;;;;;;8.10;3.20;;;5.70;90.70;;;;;;5097269;28;20448;-43
2022/04/19 04:25:08;;;;;;;6.13;3.00;;;5.90;91.00;;;;;;5098549;28;20443;-43
2022/04/19 04:27:35;;;;;;;10.35;3.40;;;5.90;91.10;;;;;;5097860;28;20468;-44
2022/04/19 04:30:03;;;;;;;4.73;3.30;;;5.80;91.10;;;;;;5096610;28;20210;-45
2022/04/19 04:32:34;;;;;;;7.67;3.57;;;5.70;91.10;;;;;;5096483;28;20542;-45
2022/04/19 04:35:00;;;;;;;7.25;3.15;;;5.10;90.90;;;;;;5096429;28;20443;-42
2022/04/19 04:37:27;;;;;;;5.60;3.33;;;5.60;91.40;;;;;;5097934;28;20224;-44
2022/04/19 04:40:00;;;;;;;4.45;3.60;;;5.70;91.50;;;;;;5097314;28;20226;-43
2022/04/19 04:42:27;;;;;;;5.07;4.05;;;5.80;91.60;;;;;;5116793;28;20251;-42
2022/04/19 04:45:00;;;;;;;6.30;5.75;;;5.90;91.60;;;;;;5096498;28;20202;-43
2022/04/19 04:50:13;;;;;;;3.30;3.00;;;5.60;91.70;;;;;;5115659;28;20214;-45
2022/04/19 04:52:40;;;;;;;4.40;3.53;;;5.60;92.10;;;;;;5097806;28;20279;-43
2022/04/19 04:55:10;;;;;;;6.13;3.30;;;5.90;92.40;;;;;;5096474;28;20447;-43
2022/04/19 04:57:38;;;;;;;5.97;3.23;;;5.80;92.40;;;;;;5095758;28;20478;-44
2022/04/19 05:00:06;;;;;;;5.53;3.77;;;5.80;92.60;;;;;;5095247;28;20951;-42
2022/04/19 05:02:50;;;;;;;7.00;3.70;;;5.70;92.60;;;;;;5096108;28;20456;-43
2022/04/19 05:05:17;;;;;;;5.83;3.80;;;5.70;92.80;;;;;;5095355;28;20288;-43
2022/04/19 05:07:44;;;;;;;7.75;4.82;;;5.80;93.10;;;;;;5095546;28;20495;-43
2022/04/19 05:10:12;;;;;;;4.10;3.70;;;5.90;93.40;;;;;;5095506;28;20240;-44
2022/04/19 05:12:39;;;;;;;6.72;4.18;;;5.70;93.40;;;;;;5095631;28;20715;-44
2022/04/19 05:15:06;;;;;;;4.55;3.50;;;5.80;93.60;;;;;;5095452;28;20205;-43
2022/04/19 05:17:37;;;;;;;6.47;4.00;;;5.90;93.60;;;;;;5095523;28;20743;-43
2022/04/19 05:20:05;;;;;;;5.10;3.90;;;5.90;94.00;;;;;;5094890;28;20193;-42
2022/04/19 05:22:35;;;;;;;6.23;4.33;;;6.30;94.00;;;;;;5095396;28;20210;-42
2022/04/19 05:25:02;;;;;;;5.73;4.27;;;6.00;94.00;;;;;;5095220;28;20539;-44
2022/04/19 05:27:31;;;;;;;4.80;4.00;;;6.20;93.90;;;;;;5094892;28;20483;-43
2022/04/19 05:29:58;;;;;;;5.70;4.10;;;5.80;93.60;;;;;;5094616;28;20478;-44
2022/04/19 05:32:27;;;;;;;7.50;5.23;;;6.70;93.60;;;;;;5095524;28;20456;-43
2022/04/19 05:34:54;;;;;;;7.33;4.97;;;6.60;93.70;;;;;;5095268;28;20941;-45
2022/04/19 05:37:21;;;;;;;10.40;4.67;;;6.30;93.20;;;;;;5094965;28;20830;-44
2022/04/19 05:39:48;;;;;;;6.50;4.50;;;6.90;93.30;;;;;;5095130;28;20448;-43
2022/04/19 05:42:15;;;;;;;6.97;5.00;;;6.90;93.20;;;;;;5095603;28;20931;-46
2022/04/19 05:44:44;;;;;;;6.67;4.10;;;6.80;93.00;;;;;;5095748;28;20521;-45
2022/04/19 05:47:15;;;;;;;5.67;4.30;;;7.00;92.90;;;;;;5096070;28;20497;-44
2022/04/19 05:49:41;;;;;;;8.93;4.60;;;7.10;92.70;;;;;;5095629;28;20480;-47
2022/04/19 05:52:08;;;;;;;6.13;4.50;;;7.20;92.70;;;;;;5095546;28;20493;-44
2022/04/19 05:54:36;;;;;;;9.40;4.30;;;7.50;92.40;;;;;;5095296;28;20457;-43
2022/04/19 05:57:02;;;;;;;7.13;4.03;;;7.20;92.30;;;;;;5095563;28;20473;-43
2022/04/19 05:59:29;;;;;;;6.83;4.17;;;7.30;92.20;;;;;;5094924;28;20452;-44
2022/04/19 06:04:54;;;;;;;10.43;5.13;;;7.60;91.90;;;;;;5094819;28;20452;-44
2022/04/19 06:07:26;;;;;;;8.23;5.10;;;7.20;91.60;;;;;;5094739;28;20470;-44
2022/04/19 06:09:53;;;;;;;7.80;4.90;;;7.60;91.40;;;;;;5095075;28;20605;-44
2022/04/19 06:12:20;;;;;;;5.87;4.90;;;7.80;91.20;;;;;;5094794;28;20442;-45
2022/04/19 06:14:52;;;;;;;5.53;4.70;;;8.00;91.10;;;;;;5095176;28;20453;-42
2022/04/19 06:17:27;;;;;;;5.57;4.60;;;7.70;90.70;;;;;;5094687;28;20466;-44
2022/04/19 06:19:54;;;;;;;8.10;5.27;;;7.90;90.70;;;;;;5094624;28;20445;-47
2022/04/19 06:22:21;;;;;;;6.67;4.73;;;7.90;90.50;;;;;;5096514;28;20490;-43
2022/04/19 06:25:03;;;;;;;7.73;5.10;;;8.70;90.70;;;;;;5096078;28;20512;-43
2022/04/19 06:27:30;;;;;;;6.60;4.37;;;8.30;90.50;;;;;;5095608;28;20487;-44
2022/04/19 06:29:58;;;;;;;9.50;5.20;;;8.40;90.20;;;;;;5094073;28;20457;-44
2022/04/19 06:32:26;;;;;;;7.03;4.83;;;8.20;89.50;;;;;;5095192;28;20547;-44
2022/04/19 06:34:56;;;;;;;4.67;4.27;;;8.30;89.70;;;;;;5094674;28;20956;-43
2022/04/19 06:37:26;;;;;;;5.80;5.00;;;8.00;88.70;;;;;;5094439;28;20861;-44
2022/04/19 06:40:02;;;;;;;9.17;5.17;;;8.60;89.50;;;;;;5094742;28;20451;-45
2022/04/19 06:42:29;;;;;;;7.27;4.90;;;7.70;88.20;;;;;;5095955;28;20851;-44
2022/04/19 06:45:15;;;;;;;11.43;5.20;;;8.50;88.30;;;;;;5115584;28;20424;-45
2022/04/19 06:47:55;;;;;;;7.23;4.80;;;8.90;88.80;;;;;;5099040;28;20471;-43
2022/04/19 06:50:23;;;;;;;8.37;5.73;;;7.90;87.80;;;;;;5098706;28;20844;-44
2022/04/19 06:52:51;;;;;;;6.57;4.50;;;8.40;87.30;;;;;;5098992;28;20957;-44
2022/04/19 06:55:38;;;;;;;6.30;4.67;;;9.00;88.20;;;;;;5074928;28;20462;-46
2022/04/19 06:58:05;;;;;;;10.87;6.93;;;8.20;86.90;;;;;;5098553;28;20901;-45
2022/04/19 07:00:32;;;;;;;7.37;5.73;;;8.60;87.20;;;;;;5099426;28;20444;-44
2022/04/19 07:03:00;;;;;;;9.83;5.73;;;8.40;86.50;;;;;;5098815;28;21014;-45
2022/04/19 07:05:52;;;;;;;5.67;5.10;;;8.50;86.30;;;;;;5118449;28;20803;-45
2022/04/19 07:08:19;;;;;;;9.00;5.50;;;8.70;85.90;;;;;;5101861;28;20465;-44
2022/04/19 07:10:46;;;;;;;6.03;5.33;;;8.70;85.60;;;;;;5120395;28;20471;-44
2022/04/19 07:13:32;;;;;;;12.03;5.70;;;9.10;85.50;;;;;;5120921;28;20427;-44
2022/04/19 07:15:59;;;;;;;10.03;5.80;;;8.60;84.90;;;;;;5102452;28;20455;-45
2022/04/19 07:18:27;;;;;;;7.30;5.03;;;8.50;83.70;;;;;;5100913;28;20514;-45
2022/04/19 07:26:41;;;;;;;5.73;4.00;;;8.70;81.00;;;;;;5103952;28;20447;-44
2022/04/19 07:29:11;;;;;;;10.03;4.83;;;9.20;80.90;;;;;;5104142;28;20451;-44
2022/04/19 07:31:39;;;;;;;9.20;4.90;;;9.20;81.20;;;;;;5102152;28;20451;-45
2022/04/19 07:34:11;;;;;;;5.93;4.00;;;9.00;80.20;;;;;;5100961;28;20457;-44
2022/04/19 07:36:39;;;;;;;4.70;4.23;;;9.00;80.00;;;;;;5102314;28;20432;-45
2022/04/19 07:39:07;;;;;;;6.73;4.33;;;9.10;79.00;;;;;;5100332;28;20447;-43
2022/04/19 07:41:45;;;;;;;5.57;3.83;;;9.40;79.20;;;;;;5102502;28;20448;-43
2022/04/19 07:44:11;;;;;;;11.23;4.80;;;9.10;78.30;;;;;;5102794;28;20443;-43
2022/04/19 07:46:38;;;;;;;6.03;3.97;;;9.50;77.50;;;;;;5100158;28;20436;-44
2022/04/19 07:49:05;;;;;;;5.27;3.80;;;9.30;77.30;;;;;;5117515;28;20462;-44
2022/04/19 07:51:34;;;;;;;8.37;4.30;;;9.00;77.10;;;;;;5098590;28;20547;-42
2022/04/19 07:54:02;;;;;;;4.93;3.33;;;8.70;75.40;;;;;;5098553;28;20486;-44
2022/04/19 07:56:28;;;;;;;5.83;3.93;;;9.60;76.20;;;;;;5096468;28;20444;-44
2022/04/19 07:58:55;;;;;;;5.53;3.77;;;9.60;75.40;;;;;;5116288;28;20412;-44
2022/04/19 08:01:23;;;;;;;4.70;3.67;;;9.70;75.80;;;;;;5098403;28;20546;-43
2022/04/19 08:03:50;;;;;;;4.90;3.47;;;9.60;74.60;;;;;;5097781;28;20444;-44
2022/04/19 08:06:17;;;;;;;5.50;2.67;;;10.00;74.30;;;;;;5097633;28;20444;-44
2022/04/19 08:08:45;;;;;;;4.73;3.30;;;9.90;74.80;;;;;;5096249;28;20464;-45
2022/04/19 08:11:12;;;;;;;5.00;3.63;;;9.70;74.10;;;;;;5098345;28;20478;-46
2022/04/19 08:13:39;;;;;;;4.97;3.30;;;9.80;73.60;;;;;;5097870;28;20534;-45
2022/04/19 08:16:07;;;;;;;4.63;3.50;;;9.60;73.60;;;;;;5098151;28;20455;-42
2022/04/19 08:18:33;;;;;;;4.10;3.30;;;9.20;73.60;;;;;;5096862;28;21046;-43
2022/04/19 08:21:00;;;;;;;11.20;3.47;;;9.70;74.30;;;;;;5096877;28;20448;-44
2022/04/19 08:23:27;;;;;;;5.10;2.90;;;9.90;74.40;;;;;;5096746;28;20451;-43
2022/04/19 08:26:01;;;;;;;6.07;3.77;;;9.60;74.10;;;;;;5097306;28;20865;-45
2022/04/19 08:28:29;;;;;;;9.10;4.00;;;9.70;73.50;;;;;;5095888;28;20544;-45
2022/04/19 08:30:55;;;;;;;5.77;3.10;;;9.90;72.70;;;;;;5096630;28;20486;-43
2022/04/19 08:33:28;;;;;;;4.33;3.53;;;9.80;73.40;;;;;;5096653;28;20448;-43
2022/04/19 08:35:56;;;;;;;6.93;2.70;;;9.90;73.40;;;;;;5097129;28;20948;-44
2022/04/19 08:38:22;;;;;;;4.10;3.10;;;10.00;70.50;;;;;;5115636;28;20447;-48
2022/04/19 08:40:49;;;;;;;4.43;3.80;;;10.20;70.60;;;;;;5097027;28;21019;-45
2022/04/19 08:43:17;;;;;;;4.43;2.80;;;10.30;70.60;;;;;;5096772;28;20456;-43
2022/04/19 08:45:45;;;;;;;5.30;3.00;;;10.40;69.90;;;;;;5115775;28;20428;-45
2022/04/19 08:48:15;;;;;;;3.87;2.80;;;10.60;69.10;;;;;;5114885;28;20451;-44
2022/04/19 08:50:43;;;;;;;3.43;2.83;;;9.80;68.90;;;;;;5115841;28;20474;-44
2022/04/19 08:58:39;;;;;;;2.80;2.20;;;10.40;68.10;;;;;;5094648;28;20508;-43
2022/04/19 09:01:06;;;;;;;8.20;2.80;;;10.50;66.80;;;;;;5095711;28;20581;-43
2022/04/19 09:03:33;;;;;;;2.80;2.20;;;10.80;66.50;;;;;;5094688;28;20428;-43
2022/04/19 09:06:00;;;;;;;4.10;2.50;;;10.60;66.00;;;;;;5094155;28;20492;-44
2022/04/19 09:08:27;;;;;;;3.73;2.37;;;10.70;65.90;;;;;;5097773;28;20470;-44
2022/04/19 09:11:05;;;;;;;7.10;2.33;;;10.70;65.60;;;;;;5114624;28;20470;-45
2022/04/19 09:13:32;;;;;;;3.07;1.87;;;10.70;65.60;;;;;;5114999;28;20428;-44
2022/04/19 09:16:04;;;;;;;2.77;1.90;;;10.90;65.90;;;;;;5114391;28;20439;-45
2022/04/19 09:18:34;;;;;;;5.20;2.30;;;11.40;66.80;;;;;;5092429;28;20472;-45
2022/04/19 09:21:02;;;;;;;7.10;2.30;;;10.80;66.00;;;;;;5094003;28;20429;-44
2022/04/19 09:23:31;;;;;;;5.33;2.17;;;10.90;66.00;;;;;;5094044;28;20430;-43
2022/04/19 09:25:59;;;;;;;2.70;1.93;;;10.90;66.40;;;;;;5093774;28;20777;-43
2022/04/19 09:28:27;;;;;;;3.97;2.10;;;11.10;66.20;;;;;;5093252;28;20976;-44
2022/04/19 09:30:57;;;;;;;5.80;2.50;;;10.60;65.30;;;;;;5093470;28;20476;-43
2022/04/19 09:33:25;;;;;;;3.43;1.33;;;11.00;66.40;;;;;;5093536;28;20452;-45
2022/04/19 09:35:54;;;;;;;7.03;1.83;;;11.00;66.40;;;;;;5094504;28;20449;-44
2022/04/19 09:38:34;;;;;;;3.37;1.77;;;11.20;66.70;;;;;;5093738;28;20440;-45
2022/04/19 09:41:01;;;;;;;3.30;2.20;;;11.30;66.10;;;;;;5093259;28;20429;-43
2022/04/19 09:43:28;;;;;;;6.17;1.83;;;11.20;65.20;;;;;;5105792;28;20766;-45
2022/04/19 09:45:58;;;;;;;3.67;1.80;;;11.30;65.30;;;;;;5113712;28;20436;-44
2022/04/19 09:48:27;;;;;;;9.13;2.40;;;11.30;63.20;;;;;;5096401;28;20539;-42
2022/04/19 09:50:58;;;;;;;11.07;2.43;;;11.50;63.20;;;;;;5113546;28;20479;-44
2022/04/19 09:53:26;;;;;;;5.60;2.20;;;11.20;63.70;;;;;;5113308;28;20520;-44
2022/04/19 09:55:55;;;;;;;4.87;1.90;;;11.30;63.70;;;;;;5113710;28;20432;-45
2022/04/19 09:58:23;;;;;;;6.50;2.20;;;11.40;63.90;;;;;;5112720;28;20876;-46
2022/04/19 10:00:52;;;;;;;3.57;2.10;;;11.20;62.60;;;;;;5112100;28;20482;-46
2022/04/19 10:08:53;;;;;;;2.73;1.90;;;11.70;61.60;;;;;;5093437;28;20473;-45
2022/04/19 10:11:20;;;;;;;4.87;1.80;;;11.80;61.30;;;;;;5111913;28;20571;-47
2022/04/19 10:13:47;;;;;;;2.40;2.20;;;12.10;62.70;;;;;;5112293;28;20437;-45
2022/04/19 10:16:15;;;;;;;5.60;1.67;;;11.60;61.90;;;;;;5111865;28;20433;-45
2022/04/19 10:18:44;;;;;;;7.67;2.07;;;11.90;62.70;;;;;;5111662;28;20820;-44
2022/04/19 10:21:16;;;;;;;3.30;1.93;;;11.70;62.70;;;;;;5111567;28;20425;-45
2022/04/19 10:23:43;;;;;;;3.67;2.00;;;12.00;62.40;;;;;;5112234;28;20432;-46
2022/04/19 10:26:19;;;;;;;5.20;1.83;;;11.90;61.50;;;;;;5112405;28;20441;-45
2022/04/19 10:28:48;;;;;;;4.60;1.70;;;11.50;61.10;;;;;;5111682;28;20439;-45
2022/04/19 10:31:24;;;;;;;2.97;1.87;;;12.20;61.10;;;;;;5112266;28;20967;-46
2022/04/19 10:33:52;;;;;;;4.20;1.77;;;12.40;61.80;;;;;;5112004;28;20435;-45
2022/04/19 10:36:22;;;;;;;5.40;2.60;;;12.50;61.00;;;;;;5112320;28;20465;-45
2022/04/19 10:39:20;;;;;;;2.20;1.80;;;12.90;61.70;;;;;;5112410;28;20429;-46
2022/04/19 10:41:48;;;;;;;4.10;1.77;;;12.60;60.80;;;;;;5111571;28;20456;-46
2022/04/19 10:44:29;;;;;;;4.40;2.23;;;12.80;60.20;;;;;;5112736;28;20857;-47
2022/04/19 10:47:05;;;;;;;3.97;1.93;;;12.90;59.70;;;;;;5111688;28;20495;-46
2022/04/19 10:49:31;;;;;;;2.20;1.53;;;12.40;57.90;;;;;;5112025;28;20748;-45
2022/04/19 10:52:00;;;;;;;3.90;1.90;;;12.90;57.60;;;;;;5094249;28;20466;-47
2022/04/19 10:55:02;;;;;;;2.20;1.90;;;12.80;57.80;;;;;;5111780;28;20487;-46
2022/04/19 11:00:25;;;;;;;4.10;2.07;;;13.00;57.60;;;;;;5111665;28;20435;-45
2022/04/19 11:03:02;;;;;;;7.53;2.07;;;13.20;57.40;;;;;;5112019;28;20433;-45
2022/04/19 11:05:41;;;;;;;2.80;1.83;;;13.30;56.80;;;;;;5111618;28;20429;-45
2022/04/19 11:08:32;;;;;;;5.53;2.17;;;13.30;57.20;;;;;;5111794;28;20489;-46
2022/04/19 11:11:26;;;;;;;4.03;2.17;;;13.60;57.30;;;;;;5111758;28;20508;-47
2022/04/19 11:14:18;;;;;;;2.50;2.00;;;13.10;56.40;;;;;;5111696;28;20496;-45
2022/04/19 11:16:45;;;;;;;6.77;2.00;;;13.80;57.20;;;;;;5111510;28;20501;-45
2022/04/19 11:19:17;;;;;;;3.80;1.70;;;13.20;56.90;;;;;;5111625;28;20513;-45
2022/04/19 11:21:55;;;;;;;6.33;2.27;;;14.10;57.50;;;;;;5112155;28;20442;-45
2022/04/19 11:25:02;;;;;;;2.70;2.10;;;13.60;56.80;;;;;;5093645;28;20450;-46
2022/04/19 11:28:02;;;;;;;2.70;1.80;;;13.50;56.80;;;;;;5111453;28;20462;-46
2022/04/19 11:30:29;;;;;;;2.50;2.07;;;13.40;56.90;;;;;;5052031;28;20542;-47
2022/04/19 11:32:58;;;;;;;3.30;2.33;;;13.40;56.90;;;;;;5097081;28;20438;-46
2022/04/19 11:35:26;;;;;;;4.90;1.83;;;13.70;56.90;;;;;;5115210;28;20439;-46
2022/04/19 11:37:52;;;;;;;3.50;2.23;;;13.70;56.90;;;;;;5115407;28;20449;-45
2022/04/19 11:48:41;;;;;;;3.33;2.37;;;13.90;57.00;;;;;;5114488;28;20916;-46
2022/04/19 11:51:09;;;;;;;5.73;2.80;;;13.60;56.60;;;;;;5114802;28;20502;-47
2022/04/19 11:53:36;;;;;;;5.60;2.27;;;13.30;56.00;;;;;;5115096;28;20784;-46
2022/04/19 11:56:06;;;;;;;2.90;2.07;;;14.00;57.00;;;;;;5114510;28;20426;-47
2022/04/19 11:58:33;;;;;;;4.23;2.10;;;14.00;56.60;;;;;;5114108;28;20473;-45
2022/04/19 12:01:03;;;;;;;2.60;2.23;;;14.10;56.70;;;;;;5114554;28;20521;-46
2022/04/19 12:03:32;;;;;;;2.93;2.07;;;13.90;56.70;;;;;;5114624;28;20438;-45
2022/04/19 12:06:07;;;;;;;5.50;2.47;;;13.90;57.00;;;;;;5114467;28;20440;-46
2022/04/19 12:08:37;;;;;;;5.67;2.27;;;14.20;57.30;;;;;;5114283;28;20793;-45
2022/04/19 12:11:06;;;;;;;3.00;2.37;;;14.20;57.60;;;;;;5114433;28;20485;-47
2022/04/19 12:13:33;;;;;;;5.23;2.47;;;14.20;57.40;;;;;;5114217;28;20435;-46
2022/04/19 12:16:03;;;;;;;3.73;2.10;;;14.20;56.90;;;;;;5114453;28;20442;-46
2022/04/19 12:18:31;;;;;;;2.40;2.20;;;14.10;56.90;;;;;;5094003;28;20484;-45
2022/04/19 12:20:58;;;;;;;2.93;1.93;;;13.90;57.40;;;;;;5093779;28;20485;-46
2022/04/19 12:23:25;;;;;;;5.10;2.03;;;14.50;57.80;;;;;;5075784;28;20928;-47
2022/04/19 12:26:06;;;;;;;4.80;2.00;;;14.30;57.80;;;;;;5094118;28;20444;-45
2022/04/19 12:28:43;;;;;;;9.30;3.13;;;14.30;57.40;;;;;;5094087;28;20464;-45
2022/04/19 12:31:25;;;;;;;2.97;2.20;;;14.30;57.40;;;;;;5093750;28;20580;-45
2022/04/19 12:33:55;;;;;;;6.30;2.23;;;13.80;57.30;;;;;;5093464;28;20453;-48
2022/04/19 12:36:23;;;;;;;3.07;2.57;;;14.10;57.30;;;;;;5095497;28;20468;-47
2022/04/19 12:38:58;;;;;;;5.53;2.37;;;13.80;57.50;;;;;;5093487;28;20432;-47
2022/04/19 12:41:36;;;;;;;4.80;2.20;;;13.80;57.90;;;;;;5093679;28;20573;-45
2022/04/19 12:44:03;;;;;;;3.83;2.20;;;13.90;58.20;;;;;;5092570;28;20521;-46
2022/04/19 12:46:30;;;;;;;12.13;2.97;;;14.00;58.10;;;;;;5094125;28;20548;-46
2022/04/19 12:48:58;;;;;;;4.73;2.30;;;14.20;58.50;;;;;;5093148;28;20460;-47
2022/04/19 12:51:25;;;;;;;4.03;2.13;;;13.90;58.40;;;;;;5093158;28;20473;-45
2022/04/19 12:54:02;;;;;;;5.33;2.47;;;13.70;58.00;;;;;;5093568;28;20439;-45
2022/04/19 12:56:29;;;;;;;3.00;2.37;;;14.20;57.90;;;;;;5092967;28;20447;-46
2022/04/19 12:58:57;;;;;;;5.70;2.40;;;14.40;58.20;;;;;;5092744;28;20435;-46
2022/04/19 13:01:23;;;;;;;4.70;2.13;;;14.30;58.10;;;;;;5093038;28;20447;-46
2022/04/19 13:03:50;;;;;;;3.40;1.80;;;14.30;57.70;;;;;;5093192;28;20792;-45
2022/04/19 13:14:31;;;;;;;2.43;2.23;;;14.50;57.80;;;;;;5093039;28;20436;-45
2022/04/19 13:16:58;;;;;;;3.37;2.23;;;14.50;57.80;;;;;;5100622;28;20872;-45
2022/04/19 13:19:24;;;;;;;2.83;2.20;;;14.10;57.30;;;;;;5107602;28;20932;-46
2022/04/19 13:21:51;;;;;;;3.73;2.50;;;14.00;56.60;;;;;;5092711;28;20523;-46
2022/04/19 13:24:17;;;;;;;3.00;1.83;;;14.20;56.40;;;;;;5093563;28;20437;-46
2022/04/19 13:26:45;;;;;;;7.33;1.90;;;14.30;56.80;;;;;;5093065;28;20449;-45
2022/04/19 13:29:13;;;;;;;2.57;1.80;;;14.40;56.80;;;;;;5092231;28;20759;-45
2022/04/19 13:31:42;;;;;;;5.20;1.90;;;14.20;56.90;;;;;;5092946;28;20977;-46
2022/04/19 13:34:09;;;;;;;4.30;1.57;;;14.50;57.30;;;;;;5092635;28;20436;-46
2022/04/19 13:36:36;;;;;;;4.50;1.80;;;14.50;56.80;;;;;;5093078;28;20437;-47
2022/04/19 13:39:05;;;;;;;4.00;1.80;;;14.10;56.60;;;;;;5092369;28;20443;-46
2022/04/19 13:41:31;;;;;;;3.73;1.60;;;14.00;56.20;;;;;;5092511;28;20610;-46
2022/04/19 13:43:58;;;;;;;3.80;1.83;;;13.90;56.10;;;;;;5092459;28;20428;-46
2022/04/19 13:46:24;;;;;;;4.73;1.83;;;14.00;56.20;;;;;;5092257;28;20813;-45
2022/04/19 13:48:54;;;;;;;2.30;1.70;;;13.80;56.20;;;;;;5092466;28;20433;-45
2022/04/19 13:51:22;;;;;;;2.30;1.70;;;14.60;56.60;;;;;;5092644;28;20466;-45
2022/04/19 13:53:48;;;;;;;5.33;1.57;;;14.10;55.90;;;;;;5095460;28;20467;-46